createdAt,value
2019-02-17T00:00:10.451Z,161.70
2019-02-17T00:02:39.237Z,147.57
2019-02-17T00:05:06.102Z,141.80
2019-02-17T00:07:33.032Z,161.40
2019-02-17T00:10:00.051Z,153.03
2019-02-17T00:12:27.175Z,147.93
2019-02-17T00:14:55.045Z,160.23
2019-02-17T00:17:22.159Z,136.10
2019-02-17T00:19:49.031Z,151.97
2019-02-17T00:22:15.908Z,140.40
2019-02-17T00:24:42.778Z,155.43
2019-02-17T00:27:09.657Z,138.13
2019-02-17T00:29:36.529Z,143.50
2019-02-17T00:32:03.613Z,161.30
2019-02-17T00:34:30.580Z,142.27
2019-02-17T00:36:57.763Z,143.73
2019-02-17T00:39:24.741Z,144.97
2019-02-17T00:41:51.641Z,146.23
2019-02-17T00:44:18.565Z,131.90
2019-02-17T00:46:45.650Z,140.80
2019-02-17T00:49:12.831Z,135.63
2019-02-17T00:51:40.211Z,129.33
2019-02-17T00:54:07.392Z,134.03
2019-02-17T00:56:34.354Z,143.23
2019-02-17T00:59:09.749Z,137.17
2019-02-17T01:01:30.389Z,124.30
2019-02-17T01:03:57.278Z,133.73
2019-02-17T01:06:24.442Z,127.07
2019-02-17T01:08:51.385Z,137.57
2019-02-17T01:11:18.434Z,133.87
2019-02-17T01:13:45.468Z,145.03
2019-02-17T01:16:12.443Z,126.63
2019-02-17T01:18:39.334Z,134.93
2019-02-17T01:21:06.374Z,133.63
2019-02-17T01:23:33.363Z,129.27
2019-02-17T01:26:00.345Z,128.97
2019-02-17T01:28:27.225Z,122.23
2019-02-17T01:30:54.146Z,135.53
2019-02-17T01:33:22.292Z,126.20
2019-02-17T01:35:51.105Z,133.73
2019-02-17T01:38:18.166Z,127.63
2019-02-17T01:40:45.162Z,128.33
2019-02-17T01:43:12.074Z,125.97
2019-02-17T01:45:39.151Z,133.63
2019-02-17T01:48:06.050Z,125.07
2019-02-17T01:50:33.007Z,132.30
2019-02-17T01:52:59.989Z,128.07
2019-02-17T01:55:26.874Z,129.03
2019-02-17T01:57:56.028Z,125.43
2019-02-17T02:00:23.033Z,127.80
2019-02-17T02:02:50.019Z,125.57
2019-02-17T02:05:17.076Z,118.83
2019-02-17T02:07:44.262Z,115.87
2019-02-17T02:10:12.433Z,119.33
2019-02-17T02:12:39.839Z,120.03
2019-02-17T02:15:10.056Z,122.43
2019-02-17T02:17:37.073Z,115.87
2019-02-17T02:20:09.222Z,120.87
2019-02-17T02:22:36.959Z,113.87
2019-02-17T02:25:06.629Z,113.90
2019-02-17T02:27:33.570Z,121.63
2019-02-17T02:30:00.644Z,118.03
2019-02-17T02:32:27.544Z,108.57
2019-02-17T02:34:55.006Z,132.20
2019-02-17T02:37:21.980Z,129.77
2019-02-17T02:39:48.946Z,134.70
2019-02-17T02:42:16.987Z,123.53
2019-02-17T02:44:44.048Z,135.53
2019-02-17T02:47:10.916Z,125.30
2019-02-17T02:49:37.779Z,120.63
2019-02-17T02:52:04.785Z,116.37
2019-02-17T02:54:31.687Z,115.63
2019-02-17T02:56:58.687Z,116.13
2019-02-17T02:59:25.681Z,114.23
2019-02-17T03:01:52.811Z,107.43
2019-02-17T03:04:19.971Z,115.37
2019-02-17T03:06:48.943Z,105.97
2019-02-17T03:09:16.015Z,111.70
2019-02-17T03:11:43.116Z,107.10
2019-02-17T03:14:10.040Z,112.40
2019-02-17T03:16:37.014Z,113.53
2019-02-17T03:19:06.685Z,101.63
2019-02-17T03:21:33.562Z,112.67
2019-02-17T03:24:00.577Z,114.13
2019-02-17T03:26:27.472Z,106.03
2019-02-17T03:28:54.635Z,108.33
2019-02-17T03:31:21.682Z,109.17
2019-02-17T03:33:48.744Z,111.80
2019-02-17T03:36:15.636Z,96.37
2019-02-17T03:38:42.651Z,110.93
2019-02-17T03:41:09.546Z,111.13
2019-02-17T03:43:36.498Z,116.73
2019-02-17T03:46:06.957Z,102.93
2019-02-17T03:48:33.965Z,117.27
2019-02-17T03:51:01.219Z,107.90
2019-02-17T03:53:29.418Z,110.77
2019-02-17T03:55:56.392Z,114.27
2019-02-17T03:58:23.365Z,105.90
2019-02-17T04:00:50.685Z,108.10
2019-02-17T04:03:17.551Z,102.97
2019-02-17T04:05:44.727Z,113.50
2019-02-17T04:08:11.936Z,111.57
2019-02-17T04:10:39.120Z,107.37
2019-02-17T04:13:06.347Z,104.87
2019-02-17T04:15:33.347Z,104.53
2019-02-17T04:18:00.304Z,107.20
2019-02-17T04:21:24.586Z,104.67
2019-02-17T04:23:51.430Z,108.50
2019-02-17T04:26:18.415Z,109.27
2019-02-17T04:28:45.422Z,98.87
2019-02-17T04:31:12.345Z,95.00
2019-02-17T04:33:39.431Z,106.43
2019-02-17T04:36:06.345Z,104.90
2019-02-17T04:38:33.325Z,94.17
2019-02-17T04:41:00.300Z,97.13
2019-02-17T04:43:27.330Z,105.00
2019-02-17T04:45:54.744Z,100.73
2019-02-17T04:48:21.666Z,103.03
2019-02-17T04:50:48.649Z,100.03
2019-02-17T04:53:15.528Z,97.00
2019-02-17T04:55:42.547Z,97.53
2019-02-17T04:58:09.390Z,100.77
2019-02-17T05:00:40.139Z,95.50
2019-02-17T05:03:05.370Z,92.23
2019-02-17T05:05:32.374Z,94.37
2019-02-17T05:07:59.233Z,95.83
2019-02-17T05:10:26.161Z,97.93
2019-02-17T05:12:53.169Z,85.43
2019-02-17T05:15:20.005Z,96.83
2019-02-17T05:17:47.352Z,109.67
2019-02-17T05:20:14.775Z,97.87
2019-02-17T05:22:41.628Z,96.90
2019-02-17T05:25:08.634Z,100.10
2019-02-17T05:27:35.676Z,96.80
2019-02-17T05:30:07.345Z,93.57
2019-02-17T05:32:34.226Z,90.40
2019-02-17T05:35:01.229Z,93.60
2019-02-17T05:37:28.190Z,98.17
2019-02-17T05:39:55.180Z,96.37
2019-02-17T05:42:22.260Z,92.57
2019-02-17T05:44:49.123Z,91.33
2019-02-17T05:47:16.191Z,98.27
2019-02-17T05:49:43.445Z,99.83
2019-02-17T05:52:10.520Z,104.83
2019-02-17T05:54:37.439Z,104.97
2019-02-17T05:57:04.624Z,102.67
2019-02-17T05:59:31.735Z,106.23
2019-02-17T06:01:58.704Z,110.10
2019-02-17T06:04:25.641Z,94.83
2019-02-17T06:06:52.675Z,99.63
2019-02-17T06:09:20.759Z,108.23
2019-02-17T06:11:49.649Z,92.93
2019-02-17T06:14:16.977Z,99.13
2019-02-17T06:16:43.833Z,91.63
2019-02-17T06:19:10.824Z,103.43
2019-02-17T06:21:37.678Z,97.13
2019-02-17T06:24:04.683Z,102.80
2019-02-17T06:26:31.720Z,95.40
2019-02-17T06:28:58.692Z,94.73
2019-02-17T06:31:25.766Z,91.13
2019-02-17T06:33:52.768Z,89.27
2019-02-17T06:36:19.764Z,92.23
2019-02-17T06:38:46.901Z,94.47
2019-02-17T06:41:15.860Z,94.33
2019-02-17T06:43:42.814Z,95.37
2019-02-17T06:46:12.526Z,92.27
2019-02-17T06:48:39.395Z,88.23
2019-02-17T06:51:06.363Z,88.07
2019-02-17T06:53:33.414Z,89.90
2019-02-17T06:56:02.595Z,94.93
2019-02-17T06:58:29.572Z,90.77
2019-02-17T07:00:56.749Z,82.80
2019-02-17T07:03:23.778Z,85.63
2019-02-17T07:05:52.656Z,88.63
2019-02-17T07:08:19.774Z,85.77
2019-02-17T07:10:46.909Z,88.87
2019-02-17T07:13:13.821Z,86.97
2019-02-17T07:15:40.877Z,104.33
2019-02-17T07:18:08.536Z,114.20
2019-02-17T07:20:35.512Z,100.53
2019-02-17T07:23:02.925Z,130.67
2019-02-17T07:25:30.586Z,140.47
2019-02-17T07:27:58.123Z,118.97
2019-02-17T07:30:25.297Z,137.27
2019-02-17T07:32:52.191Z,138.27
2019-02-17T07:35:19.165Z,129.03
2019-02-17T07:37:46.260Z,119.90
2019-02-17T07:40:13.238Z,125.20
2019-02-17T07:42:40.214Z,123.80
2019-02-17T07:45:11.694Z,108.60
2019-02-17T07:47:38.606Z,113.07
2019-02-17T07:50:09.020Z,93.47
2019-02-17T07:52:36.042Z,94.63
2019-02-17T07:55:07.952Z,69.13
2019-02-17T07:57:38.309Z,56.20
2019-02-17T08:00:11.043Z,83.80
2019-02-17T08:02:38.295Z,63.07
2019-02-17T08:05:07.312Z,53.60
2019-02-17T08:07:34.174Z,59.47
2019-02-17T08:10:01.991Z,55.60
2019-02-17T08:12:28.958Z,54.93
2019-02-17T08:14:56.094Z,48.30
2019-02-17T08:17:23.094Z,53.50
2019-02-17T08:19:50.098Z,51.30
2019-02-17T08:22:18.877Z,51.27
2019-02-17T08:24:47.123Z,55.17
2019-02-17T08:27:13.983Z,47.17
2019-02-17T08:29:40.944Z,51.23
2019-02-17T08:32:08.193Z,50.50
2019-02-17T08:34:35.083Z,51.67
2019-02-17T08:37:02.247Z,50.37
2019-02-17T08:39:29.243Z,48.97
2019-02-17T08:41:56.140Z,50.40
2019-02-17T08:44:23.337Z,46.17
2019-02-17T08:46:50.228Z,48.83
2019-02-17T08:49:17.114Z,51.73
2019-02-17T08:51:43.995Z,49.97
2019-02-17T08:54:10.979Z,40.93
2019-02-17T08:56:37.848Z,45.90
2019-02-17T08:59:05.176Z,42.77
2019-02-17T09:01:32.308Z,55.80
2019-02-17T09:03:59.289Z,51.07
2019-02-17T09:06:26.966Z,50.13
2019-02-17T09:08:53.859Z,44.53
2019-02-17T09:11:20.957Z,44.07
2019-02-17T09:13:48.048Z,49.07
2019-02-17T09:16:14.797Z,43.30
2019-02-17T09:18:41.542Z,45.60
2019-02-17T09:21:08.131Z,45.43
2019-02-17T09:24:31.255Z,42.30
2019-02-17T09:26:57.837Z,45.13
2019-02-17T09:29:24.445Z,47.13
2019-02-17T09:31:51.017Z,42.70
2019-02-17T09:34:17.639Z,47.00
2019-02-17T09:36:44.238Z,53.27
2019-02-17T09:39:10.947Z,47.27
2019-02-17T09:41:37.532Z,46.07
2019-02-17T09:44:04.323Z,44.77
2019-02-17T09:46:31.135Z,39.10
2019-02-17T09:48:57.870Z,38.93
2019-02-17T09:51:25.581Z,32.80
2019-02-17T09:53:52.176Z,41.43
2019-02-17T09:56:18.985Z,37.87
2019-02-17T09:58:45.635Z,37.73
2019-02-17T10:01:13.728Z,30.00
2019-02-17T10:03:40.542Z,35.03
2019-02-17T10:06:07.146Z,47.97
2019-02-17T10:08:33.755Z,33.83
2019-02-17T10:11:00.401Z,35.37
2019-02-17T10:13:27.096Z,36.70
2019-02-17T10:15:53.740Z,37.03
2019-02-17T10:18:20.348Z,34.10
2019-02-17T10:20:47.263Z,37.90
2019-02-17T10:23:13.858Z,32.57
2019-02-17T10:25:40.433Z,31.37
2019-02-17T10:28:07.074Z,37.17
2019-02-17T10:30:33.754Z,32.43
2019-02-17T10:33:00.410Z,41.50
2019-02-17T10:35:27.016Z,39.47
2019-02-17T10:37:53.581Z,33.70
2019-02-17T10:40:20.197Z,46.93
2019-02-17T10:42:46.913Z,31.87
2019-02-17T10:45:13.978Z,38.23
2019-02-17T10:47:40.597Z,32.77
2019-02-17T10:50:11.629Z,36.70
2019-02-17T10:52:38.575Z,33.00
2019-02-17T10:55:09.340Z,37.40
2019-02-17T10:57:37.157Z,37.50
2019-02-17T11:00:11.510Z,30.67
2019-02-17T11:02:46.743Z,38.00
2019-02-17T11:05:09.543Z,34.63
2019-02-17T11:07:36.439Z,36.20
2019-02-17T11:10:44.125Z,41.33
2019-02-17T11:13:10.729Z,37.20
2019-02-17T11:15:39.389Z,35.47
2019-02-17T11:18:09.201Z,31.37
2019-02-17T11:20:35.900Z,36.70
2019-02-17T11:23:02.807Z,37.93
2019-02-17T11:25:29.558Z,40.77
2019-02-17T11:27:56.170Z,37.83
2019-02-17T11:30:22.885Z,30.87
2019-02-17T11:32:57.564Z,39.47
2019-02-17T11:35:19.563Z,38.27
2019-02-17T11:37:46.270Z,36.70
2019-02-17T11:40:13.219Z,40.00
2019-02-17T11:42:40.434Z,39.67
2019-02-17T11:45:12.655Z,39.70
2019-02-17T11:47:39.298Z,36.27
2019-02-17T11:50:07.718Z,36.07
2019-02-17T11:52:35.630Z,35.47
2019-02-17T11:55:07.227Z,37.07
2019-02-17T11:57:33.791Z,41.00
2019-02-17T12:00:00.369Z,42.27
2019-02-17T12:02:27.264Z,38.20
2019-02-17T12:04:53.931Z,38.17
2019-02-17T12:07:20.818Z,38.60
2019-02-17T12:09:47.576Z,37.60
2019-02-17T12:12:17.600Z,49.03
2019-02-17T12:14:45.662Z,32.07
2019-02-17T12:17:13.343Z,31.70
2019-02-17T12:19:39.953Z,35.63
2019-02-17T12:22:08.634Z,33.33
2019-02-17T12:24:37.326Z,31.83
2019-02-17T12:27:05.963Z,110.23
2019-02-17T12:30:32.929Z,35.17
2019-02-17T12:32:59.955Z,34.33
2019-02-17T12:35:27.077Z,145.00
2019-02-17T12:37:53.877Z,35.13
2019-02-17T12:40:20.534Z,25.57
2019-02-17T12:42:47.534Z,49.20
2019-02-17T12:45:17.466Z,49.47
2019-02-17T12:47:42.934Z,37.30
2019-02-17T12:50:10.963Z,34.03
2019-02-17T12:52:47.194Z,22.97
2019-02-17T12:55:09.383Z,17.50
2019-02-17T12:57:35.986Z,25.07
2019-02-17T13:00:08.667Z,31.13
2019-02-17T13:02:35.405Z,25.83
2019-02-17T13:05:08.020Z,20.50
2019-02-17T13:07:34.715Z,30.97
2019-02-17T13:10:01.481Z,58.93
2019-02-17T13:12:28.098Z,101.63
2019-02-17T13:15:51.306Z,48.23
2019-02-17T13:18:21.191Z,30.10
2019-02-17T13:20:49.233Z,33.70
2019-02-17T13:23:15.836Z,47.40
2019-02-17T13:25:42.457Z,54.03
2019-02-17T13:28:09.121Z,80.33
2019-02-17T13:30:35.802Z,31.93
2019-02-17T13:33:02.372Z,54.93
2019-02-17T13:35:28.976Z,40.37
2019-02-17T13:37:55.667Z,33.33
2019-02-17T13:40:22.283Z,27.93
2019-02-17T13:42:49.045Z,23.23
2019-02-17T13:45:16.340Z,42.70
2019-02-17T13:47:42.990Z,41.63
2019-02-17T13:50:12.770Z,22.23
2019-02-17T13:52:39.428Z,20.57
2019-02-17T13:55:07.742Z,28.63
2019-02-17T13:57:34.499Z,34.10
2019-02-17T14:00:01.994Z,26.10
2019-02-17T14:02:30.739Z,26.77
2019-02-17T14:04:57.614Z,23.00
2019-02-17T14:07:24.726Z,34.23
2019-02-17T14:09:51.523Z,30.47
2019-02-17T14:12:18.427Z,31.73
2019-02-17T14:14:45.080Z,20.87
2019-02-17T14:17:11.722Z,17.67
2019-02-17T14:19:38.550Z,20.13
2019-02-17T14:22:05.337Z,20.10
2019-02-17T14:24:31.980Z,16.37
2019-02-17T14:26:58.588Z,21.17
2019-02-17T14:29:25.356Z,30.43
2019-02-17T14:31:52.579Z,21.73
2019-02-17T14:34:20.279Z,31.70
2019-02-17T14:36:46.975Z,23.20
2019-02-17T14:39:13.575Z,15.93
2019-02-17T14:41:40.162Z,18.77
2019-02-17T14:44:06.829Z,14.73
2019-02-17T14:46:33.564Z,12.90
2019-02-17T14:49:02.420Z,15.07
2019-02-17T14:51:28.779Z,27.90
2019-02-17T14:53:55.386Z,23.33
2019-02-17T14:56:22.166Z,21.90
2019-02-17T14:58:49.002Z,24.40
2019-02-17T15:01:15.689Z,20.20
2019-02-17T15:03:42.264Z,25.87
2019-02-17T15:06:09.040Z,30.23
2019-02-17T15:08:35.608Z,20.73
2019-02-17T15:11:02.546Z,19.60
2019-02-17T15:13:30.337Z,20.93
2019-02-17T15:15:57.001Z,85.03
2019-02-17T15:18:23.576Z,59.17
2019-02-17T15:20:50.145Z,24.27
2019-02-17T15:23:16.789Z,69.73
2019-02-17T15:25:43.373Z,63.70
2019-02-17T15:28:10.040Z,111.00
2019-02-17T15:30:36.591Z,42.37
2019-02-17T15:33:04.397Z,36.97
2019-02-17T15:35:31.453Z,69.23
2019-02-17T15:37:58.182Z,48.43
2019-02-17T15:40:24.726Z,24.53
2019-02-17T15:42:51.559Z,22.70
2019-02-17T15:45:18.274Z,36.93
2019-02-17T15:47:44.864Z,28.57
2019-02-17T15:50:13.497Z,47.93
2019-02-17T15:52:40.166Z,37.40
2019-02-17T15:55:09.974Z,32.70
2019-02-17T15:57:36.769Z,32.77
2019-02-17T16:00:09.152Z,37.90
2019-02-17T16:02:35.720Z,24.93
2019-02-17T16:05:05.343Z,32.13
2019-02-17T16:07:32.143Z,28.97
2019-02-17T16:09:58.720Z,48.77
2019-02-17T16:12:25.427Z,112.13
2019-02-17T16:14:52.077Z,87.67
2019-02-17T16:17:18.698Z,59.03
2019-02-17T16:19:47.870Z,64.27
2019-02-17T16:22:14.823Z,96.63
2019-02-17T16:24:41.581Z,69.33
2019-02-17T16:27:08.330Z,29.40
2019-02-17T16:29:35.059Z,22.63
2019-02-17T16:32:01.879Z,21.23
2019-02-17T16:34:38.003Z,33.07
2019-02-17T16:37:00.013Z,32.73
2019-02-17T16:39:26.725Z,53.43
2019-02-17T16:41:53.398Z,56.27
2019-02-17T16:44:20.134Z,91.40
2019-02-17T16:46:46.852Z,51.90
2019-02-17T16:49:13.424Z,102.40
2019-02-17T16:51:40.041Z,80.57
2019-02-17T16:54:06.617Z,99.50
2019-02-17T16:56:33.192Z,80.50
2019-02-17T16:58:59.799Z,36.30
2019-02-17T17:01:26.731Z,64.97
2019-02-17T17:03:53.316Z,37.27
2019-02-17T17:06:20.024Z,31.73
2019-02-17T17:08:46.856Z,68.00
2019-02-17T17:11:13.446Z,49.17
2019-02-17T17:13:40.117Z,27.23
2019-02-17T17:16:06.839Z,37.50
2019-02-17T17:18:33.441Z,53.93
2019-02-17T17:21:01.075Z,81.50
2019-02-17T17:23:28.874Z,64.90
2019-02-17T17:25:56.690Z,82.83
2019-02-17T17:28:25.773Z,57.87
2019-02-17T17:30:53.140Z,74.50
2019-02-17T17:33:19.765Z,63.67
2019-02-17T17:35:46.347Z,96.40
2019-02-17T17:38:13.102Z,106.10
2019-02-17T17:40:41.884Z,94.47
2019-02-17T17:43:08.689Z,74.63
2019-02-17T17:45:35.523Z,58.60
2019-02-17T17:48:02.352Z,76.27
2019-02-17T17:50:29.054Z,55.80
2019-02-17T17:52:55.846Z,56.77
2019-02-17T17:55:22.538Z,69.60
2019-02-17T17:57:49.525Z,74.00
2019-02-17T18:00:19.750Z,71.00
2019-02-17T18:02:46.938Z,59.03
2019-02-17T18:05:13.998Z,38.20
2019-02-17T18:07:41.147Z,35.07
2019-02-17T18:10:11.884Z,26.80
2019-02-17T18:12:38.514Z,29.63
2019-02-17T18:15:09.748Z,26.70
2019-02-17T18:17:37.011Z,41.87
2019-02-17T18:20:10.188Z,70.93
2019-02-17T18:22:37.282Z,42.50
2019-02-17T18:25:06.131Z,55.20
2019-02-17T18:27:36.306Z,39.70
2019-02-17T18:30:10.295Z,46.83
2019-02-17T18:32:37.191Z,84.70
2019-02-17T18:35:05.573Z,80.57
2019-02-17T18:37:32.907Z,53.37
2019-02-17T18:39:59.576Z,55.00
2019-02-17T18:42:27.324Z,60.30
2019-02-17T18:44:54.330Z,56.57
2019-02-17T18:47:30.328Z,55.87
2019-02-17T18:49:58.132Z,43.03
2019-02-17T18:52:24.789Z,48.60
2019-02-17T18:54:52.908Z,50.43
2019-02-17T18:57:19.701Z,41.57
2019-02-17T18:59:47.617Z,48.03
2019-02-17T19:02:14.657Z,53.13
2019-02-17T19:04:42.108Z,54.13
2019-02-17T19:07:09.094Z,46.90
2019-02-17T19:09:39.162Z,44.80
2019-02-17T19:12:07.374Z,42.93
2019-02-17T19:14:34.418Z,42.83
2019-02-17T19:17:01.059Z,43.53
2019-02-17T19:19:27.661Z,43.97
2019-02-17T19:21:55.094Z,47.30
2019-02-17T19:24:23.981Z,37.97
2019-02-17T19:26:50.561Z,38.53
2019-02-17T19:29:17.291Z,38.80
2019-02-17T19:31:46.524Z,28.50
2019-02-17T19:34:13.184Z,34.57
2019-02-17T19:36:40.119Z,30.20
2019-02-17T19:39:06.935Z,29.23
2019-02-17T19:41:34.767Z,30.53
2019-02-17T19:44:01.385Z,27.90
2019-02-17T19:46:28.189Z,32.40
2019-02-17T19:48:55.322Z,29.17
2019-02-17T19:51:22.426Z,27.17
2019-02-17T19:53:49.365Z,30.93
2019-02-17T19:56:16.723Z,27.57
2019-02-17T19:58:43.842Z,29.57
2019-02-17T20:02:07.073Z,25.90
2019-02-17T20:04:35.626Z,25.30
2019-02-17T20:07:02.602Z,29.03
2019-02-17T20:09:29.512Z,32.27
2019-02-17T20:11:56.266Z,26.90
2019-02-17T20:14:23.430Z,23.60
2019-02-17T20:16:50.427Z,25.10
2019-02-17T20:19:17.092Z,23.30
2019-02-17T20:21:44.107Z,21.93
2019-02-17T20:24:11.169Z,27.37
2019-02-17T20:26:38.289Z,23.00
2019-02-17T20:29:05.119Z,27.00
2019-02-17T20:31:32.076Z,22.17
2019-02-17T20:33:58.868Z,24.30
2019-02-17T20:36:27.033Z,29.10
2019-02-17T20:38:54.058Z,26.07
2019-02-17T20:41:20.881Z,25.50
2019-02-17T20:43:48.025Z,23.23
2019-02-17T20:46:16.403Z,21.57
2019-02-17T20:48:42.992Z,21.17
2019-02-17T20:51:09.631Z,24.33
2019-02-17T20:54:34.417Z,26.77
2019-02-17T20:57:01.037Z,21.93
2019-02-17T20:59:28.017Z,15.97
2019-02-17T21:01:54.703Z,21.47
2019-02-17T21:04:21.650Z,21.40
2019-02-17T21:06:48.430Z,21.03
2019-02-17T21:09:15.319Z,28.80
2019-02-17T21:11:42.243Z,26.43
2019-02-17T21:14:09.153Z,28.07
2019-02-17T21:16:35.877Z,23.07
2019-02-17T21:19:02.868Z,21.90
2019-02-17T21:22:25.920Z,23.20
2019-02-17T21:24:52.784Z,25.37
2019-02-17T21:27:19.559Z,20.73
2019-02-17T21:29:46.269Z,24.10
2019-02-17T21:32:13.828Z,27.97
2019-02-17T21:34:40.809Z,21.53
2019-02-17T21:37:08.486Z,20.97
2019-02-17T21:39:35.057Z,25.20
2019-02-17T21:42:02.887Z,29.00
2019-02-17T21:44:29.533Z,24.43
2019-02-17T21:46:56.581Z,27.23
2019-02-17T21:49:23.154Z,26.73
2019-02-17T21:51:51.780Z,24.60
2019-02-17T21:54:19.748Z,36.40
2019-02-17T21:56:46.697Z,38.87
2019-02-17T21:59:14.103Z,39.70
2019-02-17T22:01:41.038Z,37.27
2019-02-17T22:04:07.599Z,39.67
2019-02-17T22:06:34.339Z,40.17
2019-02-17T22:09:01.530Z,38.90
2019-02-17T22:11:30.689Z,43.87
2019-02-17T22:13:57.363Z,47.77
2019-02-17T22:16:25.462Z,66.50
2019-02-17T22:18:53.795Z,76.37
2019-02-17T22:21:20.617Z,61.93
2019-02-17T22:23:47.388Z,64.33
2019-02-17T22:26:14.530Z,84.33
2019-02-17T22:28:45.030Z,83.07
2019-02-17T22:31:11.848Z,79.37
2019-02-17T22:33:38.699Z,93.07
2019-02-17T22:36:05.599Z,89.77
2019-02-17T22:38:32.308Z,100.07
2019-02-17T22:40:58.996Z,97.47
2019-02-17T22:43:27.923Z,114.70
2019-02-17T22:45:54.237Z,120.30
2019-02-17T22:48:21.022Z,111.30
2019-02-17T22:50:48.328Z,56.70
2019-02-17T22:53:15.177Z,66.10
2019-02-17T22:55:44.903Z,71.03
2019-02-17T22:58:12.054Z,74.77
2019-02-17T23:00:40.922Z,84.17
2019-02-17T23:03:08.250Z,62.77
2019-02-17T23:05:35.957Z,69.87
2019-02-17T23:08:02.922Z,71.90
2019-02-17T23:10:29.860Z,75.37
2019-02-17T23:12:57.790Z,73.70
2019-02-17T23:15:24.566Z,87.43
2019-02-17T23:17:51.349Z,79.10
2019-02-17T23:20:17.951Z,79.53
2019-02-17T23:22:44.601Z,89.73
2019-02-17T23:25:11.318Z,88.80
2019-02-17T23:27:38.070Z,76.50
2019-02-17T23:30:08.624Z,79.37
2019-02-17T23:32:35.404Z,84.37
2019-02-17T23:35:02.862Z,76.53
2019-02-17T23:37:29.519Z,77.93
2019-02-17T23:39:56.083Z,75.13
2019-02-17T23:42:22.982Z,78.97
2019-02-17T23:44:49.707Z,84.37
2019-02-17T23:47:16.277Z,80.63
2019-02-17T23:49:42.955Z,74.63
2019-02-17T23:53:05.889Z,69.93
2019-02-17T23:55:32.738Z,74.87
2019-02-17T23:58:01.226Z,72.10
